Time;durP1;ratioP1;P1;durP2;ratioP2;P2;SDS_P1;SDS_P2;PMS_P1;PMS_P2;Temp;Humidity;BMP_temperature;BMP_pressure;BME280_temperature;BME280_humidity;BME280_pressure;Samples;Min_cycle;Max_cycle;Signal;HPM_P1;HPM_P2
2023/07/16 00:00:22;;;;;;;4.03;2.40;;;22.60;99.90;;;;;;5052778;28;20515;-51
2023/07/16 00:02:49;;;;;;;5.23;2.90;;;22.50;99.90;;;;;;5054206;28;20588;-54
2023/07/16 00:05:17;;;;;;;2.87;2.67;;;22.50;99.90;;;;;;5042442;28;20497;-54
2023/07/16 00:07:43;;;;;;;9.33;2.47;;;22.40;99.90;;;;;;5051311;28;20544;-52
2023/07/16 00:10:10;;;;;;;2.70;2.00;;;22.40;99.90;;;;;;5054382;28;20511;-53
2023/07/16 00:12:37;;;;;;;3.27;1.90;;;22.40;99.90;;;;;;5054439;28;20496;-54
2023/07/16 00:15:04;;;;;;;2.40;2.23;;;22.20;99.90;;;;;;5052443;28;20492;-53
2023/07/16 00:17:31;;;;;;;2.33;2.17;;;22.20;99.90;;;;;;5053705;28;20458;-54
2023/07/16 00:19:57;;;;;;;2.30;2.20;;;22.10;99.90;;;;;;5051136;28;21030;-53
2023/07/16 00:22:25;;;;;;;3.80;2.30;;;22.00;99.90;;;;;;5051237;28;20569;-53
2023/07/16 00:24:52;;;;;;;4.53;2.40;;;21.90;99.90;;;;;;5053498;28;20462;-53
2023/07/16 00:27:19;;;;;;;3.63;2.67;;;21.90;99.90;;;;;;5053115;28;20462;-53
2023/07/16 00:29:45;;;;;;;5.73;2.70;;;21.80;99.90;;;;;;5053130;28;20490;-52
2023/07/16 00:32:12;;;;;;;2.77;2.57;;;21.70;99.90;;;;;;5052754;28;20576;-52
2023/07/16 00:34:39;;;;;;;2.40;2.30;;;21.70;99.90;;;;;;5050370;28;20549;-53
2023/07/16 00:37:05;;;;;;;3.57;3.17;;;21.70;99.90;;;;;;5052873;28;20545;-53
2023/07/16 00:39:33;;;;;;;8.63;2.40;;;21.60;99.90;;;;;;5053245;28;21017;-53
2023/07/16 00:42:00;;;;;;;2.60;2.40;;;21.60;99.90;;;;;;5039899;28;20573;-52
2023/07/16 00:44:26;;;;;;;2.70;2.50;;;21.60;99.90;;;;;;5047409;28;20561;-53
2023/07/16 00:46:53;;;;;;;2.53;2.33;;;21.60;99.90;;;;;;5045713;28;20545;-53
2023/07/16 00:49:19;;;;;;;6.73;2.67;;;21.60;99.90;;;;;;5052838;28;20892;-52
2023/07/16 00:51:47;;;;;;;2.53;2.37;;;21.60;99.90;;;;;;5047335;28;20505;-51
2023/07/16 00:54:14;;;;;;;6.60;2.50;;;21.60;99.90;;;;;;5052025;28;20457;-52
2023/07/16 00:56:42;;;;;;;2.77;2.07;;;21.70;99.90;;;;;;5052363;28;20561;-54
2023/07/16 00:59:09;;;;;;;6.77;2.63;;;21.70;99.90;;;;;;5053186;28;20492;-54
2023/07/16 01:01:35;;;;;;;3.07;2.83;;;21.70;99.90;;;;;;5050430;28;20461;-53
2023/07/16 01:04:03;;;;;;;8.83;3.13;;;21.70;99.90;;;;;;5050872;28;20490;-51
2023/07/16 01:06:35;;;;;;;14.93;2.77;;;21.70;99.90;;;;;;5044191;28;20473;-54
2023/07/16 01:09:04;;;;;;;5.30;3.43;;;21.70;99.90;;;;;;5047625;28;20470;-52
2023/07/16 01:11:35;;;;;;;3.60;3.27;;;21.70;99.90;;;;;;5042420;28;20459;-52
2023/07/16 01:14:03;;;;;;;5.27;3.90;;;21.70;99.90;;;;;;5052389;28;20461;-53
2023/07/16 01:16:30;;;;;;;10.80;4.03;;;21.80;99.90;;;;;;5047453;28;20467;-54
2023/07/16 01:18:56;;;;;;;6.73;4.17;;;21.80;99.90;;;;;;5052042;28;21174;-54
2023/07/16 01:21:24;;;;;;;5.33;3.53;;;21.90;99.90;;;;;;5050942;28;20537;-52
2023/07/16 01:24:18;;;;;;;3.80;3.30;;;22.00;99.90;;;;;;5044554;28;20517;-52
2023/07/16 01:27:13;;;;;;;6.00;2.87;;;22.00;99.90;;;;;;5034728;28;20972;-51
2023/07/16 01:29:45;;;;;;;6.83;3.80;;;22.20;99.90;;;;;;5048723;28;20515;-52
2023/07/16 01:32:13;;;;;;;5.10;3.50;;;22.30;99.90;;;;;;5045572;28;20584;-54
2023/07/16 01:34:40;;;;;;;12.40;5.67;;;22.40;99.90;;;;;;5044740;28;20551;-52
2023/07/16 01:37:07;;;;;;;16.93;4.40;;;22.50;99.90;;;;;;5051845;28;20545;-54
2023/07/16 01:39:34;;;;;;;9.30;4.23;;;22.50;99.90;;;;;;5045660;28;20540;-54
2023/07/16 01:42:01;;;;;;;5.47;4.50;;;22.30;99.90;;;;;;5045986;28;20513;-52
2023/07/16 01:44:27;;;;;;;4.70;3.97;;;22.20;99.90;;;;;;5037020;28;20466;-53
2023/07/16 01:47:09;;;;;;;3.13;2.83;;;22.10;99.90;;;;;;5048697;28;20876;-52
2023/07/16 01:49:35;;;;;;;5.23;3.53;;;22.00;87.00;;;;;;5049432;28;20493;-53
2023/07/16 01:52:03;;;;;;;3.10;2.90;;;21.90;77.50;;;;;;5051151;28;20569;-54
2023/07/16 01:54:30;;;;;;;2.73;2.47;;;21.80;66.80;;;;;;5046698;28;20466;-52
2023/07/16 01:56:56;;;;;;;2.77;2.57;;;21.70;61.70;;;;;;5046790;28;20484;-54
2023/07/16 01:59:23;;;;;;;3.40;3.10;;;21.70;50.30;;;;;;5048510;28;20895;-52
2023/07/16 02:01:49;;;;;;;9.33;3.70;;;21.60;48.80;;;;;;5047801;28;21251;-52
2023/07/16 02:04:17;;;;;;;3.70;3.40;;;21.60;43.60;;;;;;5046776;28;20486;-53
2023/07/16 02:06:44;;;;;;;3.33;3.03;;;21.60;43.90;;;;;;5050004;28;20517;-53
2023/07/16 02:09:11;;;;;;;3.73;3.13;;;21.60;46.10;;;;;;5052007;28;20921;-54
2023/07/16 02:11:37;;;;;;;5.27;3.40;;;21.70;44.40;;;;;;5051195;28;20635;-51
2023/07/16 02:14:04;;;;;;;4.80;3.40;;;21.70;48.50;;;;;;5046676;28;20550;-52
2023/07/16 02:16:30;;;;;;;3.60;3.30;;;21.70;48.20;;;;;;5049135;28;21003;-52
2023/07/16 02:18:57;;;;;;;6.10;4.03;;;21.70;45.30;;;;;;5048648;28;20549;-53
2023/07/16 02:21:25;;;;;;;5.13;4.33;;;21.70;43.80;;;;;;5050053;28;20485;-53
2023/07/16 02:23:51;;;;;;;10.00;4.63;;;21.70;43.60;;;;;;5049231;28;20576;-54
2023/07/16 02:26:18;;;;;;;11.93;4.60;;;21.70;43.60;;;;;;5051446;28;20486;-52
2023/07/16 02:28:44;;;;;;;8.70;3.83;;;21.70;42.60;;;;;;5051114;28;20917;-53
2023/07/16 02:31:11;;;;;;;8.00;4.07;;;21.70;41.60;;;;;;5048849;28;20536;-52
2023/07/16 02:33:37;;;;;;;4.80;3.90;;;21.60;38.10;;;;;;5042347;28;20526;-52
2023/07/16 02:36:05;;;;;;;4.30;3.90;;;21.60;29.70;;;;;;5045927;28;20462;-52
2023/07/16 02:38:33;;;;;;;9.00;3.67;;;21.40;99.90;;;;;;5047515;28;20940;-52
2023/07/16 02:40:59;;;;;;;4.93;3.70;;;21.30;99.90;;;;;;5050884;28;20489;-53
2023/07/16 02:43:26;;;;;;;3.73;3.43;;;21.10;99.90;;;;;;5048446;28;20525;-52
2023/07/16 02:45:53;;;;;;;2.90;2.60;;;20.90;99.90;;;;;;5042932;28;20478;-52
2023/07/16 02:48:19;;;;;;;6.20;3.20;;;20.70;99.90;;;;;;5051817;28;20454;-51
2023/07/16 02:50:46;;;;;;;4.70;3.83;;;20.60;99.90;;;;;;5049630;28;20548;-52
2023/07/16 02:53:12;;;;;;;6.03;3.50;;;20.50;99.90;;;;;;5049229;28;20504;-52
2023/07/16 02:55:40;;;;;;;5.80;2.97;;;20.30;99.90;;;;;;5046870;28;20810;-52
2023/07/16 02:58:06;;;;;;;3.57;3.20;;;20.30;98.10;;;;;;5051164;28;20516;-52
2023/07/16 03:00:34;;;;;;;5.40;3.33;;;20.20;92.20;;;;;;5038808;28;20521;-52
2023/07/16 03:03:01;;;;;;;3.27;2.97;;;20.20;79.80;;;;;;5050434;28;20540;-52
2023/07/16 03:05:28;;;;;;;4.60;3.57;;;20.10;72.70;;;;;;5044273;28;20497;-52
2023/07/16 03:07:54;;;;;;;3.60;3.40;;;20.10;68.20;;;;;;5050937;28;20539;-52
2023/07/16 03:10:21;;;;;;;5.13;3.50;;;20.20;60.50;;;;;;5050288;28;20550;-52
2023/07/16 03:12:49;;;;;;;13.80;3.70;;;20.10;55.10;;;;;;5051093;28;20477;-52
2023/07/16 03:15:15;;;;;;;8.30;3.23;;;20.10;49.30;;;;;;5048132;28;20513;-52
2023/07/16 03:17:42;;;;;;;5.97;3.13;;;20.00;46.10;;;;;;5051382;28;20525;-52
2023/07/16 03:20:10;;;;;;;3.43;3.00;;;20.10;41.50;;;;;;5044441;28;20494;-51
2023/07/16 03:22:36;;;;;;;4.17;3.77;;;20.10;39.00;;;;;;5045337;28;20544;-52
2023/07/16 03:25:03;;;;;;;4.27;3.77;;;20.10;36.50;;;;;;5045393;28;20458;-51
2023/07/16 03:27:30;;;;;;;4.63;3.83;;;20.00;35.50;;;;;;5039340;28;20486;-51
2023/07/16 03:29:58;;;;;;;6.10;3.80;;;20.00;34.40;;;;;;5049534;28;20486;-52
2023/07/16 03:32:24;;;;;;;5.23;3.93;;;19.90;31.70;;;;;;5049428;28;20492;-52
2023/07/16 03:34:51;;;;;;;4.10;3.60;;;19.90;30.20;;;;;;5048695;28;21391;-52
2023/07/16 03:37:17;;;;;;;4.20;3.80;;;19.90;29.00;;;;;;5041775;28;20461;-51
2023/07/16 03:39:44;;;;;;;5.10;3.27;;;19.90;27.70;;;;;;5044171;28;20501;-51
2023/07/16 03:42:10;;;;;;;3.60;3.30;;;19.90;26.80;;;;;;5042662;28;20509;-53
2023/07/16 03:44:37;;;;;;;3.57;3.27;;;19.80;26.00;;;;;;5049578;28;20493;-53
2023/07/16 03:47:05;;;;;;;5.07;3.60;;;19.80;25.10;;;;;;5048519;28;20517;-52
2023/07/16 03:49:31;;;;;;;4.50;3.30;;;19.80;24.30;;;;;;5050257;28;20462;-51
2023/07/16 03:51:58;;;;;;;5.00;3.23;;;19.80;23.40;;;;;;5047448;28;21378;-51
2023/07/16 03:54:24;;;;;;;6.03;3.50;;;19.80;22.40;;;;;;5053536;28;20533;-52
2023/07/16 03:56:51;;;;;;;5.17;2.67;;;19.80;21.90;;;;;;5054480;28;20481;-53
2023/07/16 03:59:17;;;;;;;5.73;3.23;;;19.80;21.00;;;;;;5045966;28;20966;-52
2023/07/16 04:01:44;;;;;;;4.13;3.10;;;19.80;20.50;;;;;;5049033;28;20512;-51
2023/07/16 04:04:12;;;;;;;6.07;3.03;;;19.80;72.10;;;;;;5042264;28;20568;-52
2023/07/16 04:06:38;;;;;;;3.97;2.73;;;19.80;76.30;;;;;;5047475;28;20500;-52
2023/07/16 04:09:05;;;;;;;3.90;3.10;;;19.90;74.20;;;;;;5048866;28;20458;-53
2023/07/16 04:11:31;;;;;;;3.40;3.10;;;19.90;75.30;;;;;;5045211;28;20489;-51
2023/07/16 04:13:58;;;;;;;4.50;3.27;;;19.90;78.00;;;;;;5051515;28;20509;-52
2023/07/16 04:16:24;;;;;;;2.50;2.30;;;19.90;75.60;;;;;;5047955;28;20992;-52
2023/07/16 04:18:51;;;;;;;3.10;2.77;;;19.90;20.10;;;;;;5052831;28;20446;-52
2023/07/16 04:21:19;;;;;;;3.67;2.67;;;19.90;72.50;;;;;;5041103;28;20489;-52
2023/07/16 04:23:45;;;;;;;3.00;2.80;;;19.90;86.70;;;;;;5049537;28;20237;-52
2023/07/16 04:26:12;;;;;;;3.27;2.97;;;19.90;87.80;;;;;;5054070;28;20506;-52
2023/07/16 04:28:39;;;;;;;3.33;3.00;;;19.90;91.80;;;;;;5052479;28;20446;-52
2023/07/16 04:31:05;;;;;;;3.20;3.00;;;19.90;99.90;;;;;;5045551;28;20462;-51
2023/07/16 04:33:32;;;;;;;3.60;3.23;;;19.90;99.90;;;;;;5052852;28;20521;-52
2023/07/16 04:35:58;;;;;;;8.07;3.17;;;19.90;99.90;;;;;;5047673;28;20450;-52
2023/07/16 04:38:27;;;;;;;11.10;3.17;;;19.90;99.90;;;;;;5044687;28;20462;-52
2023/07/16 04:40:53;;;;;;;7.13;3.63;;;19.90;99.90;;;;;;5049758;28;20480;-53
2023/07/16 04:43:20;;;;;;;3.43;3.13;;;19.90;99.90;;;;;;5042661;28;20531;-53
2023/07/16 04:45:46;;;;;;;3.23;2.93;;;19.90;99.90;;;;;;5052773;28;20490;-53
2023/07/16 04:48:13;;;;;;;3.10;2.90;;;19.90;99.90;;;;;;5053495;28;20473;-52
2023/07/16 04:50:39;;;;;;;2.97;2.77;;;19.90;99.90;;;;;;5049646;28;20454;-52
2023/07/16 04:53:06;;;;;;;4.03;3.27;;;19.90;99.90;;;;;;5043129;28;21003;-52
2023/07/16 04:55:37;;;;;;;6.27;2.90;;;19.90;99.90;;;;;;5051361;28;20553;-52
2023/07/16 04:58:03;;;;;;;3.77;2.80;;;19.90;99.90;;;;;;5051703;28;20925;-52
2023/07/16 05:00:31;;;;;;;4.60;2.70;;;19.90;99.90;;;;;;5043293;28;20490;-51
2023/07/16 05:02:58;;;;;;;3.07;2.87;;;20.00;99.90;;;;;;5051082;28;20516;-53
2023/07/16 05:05:24;;;;;;;3.00;2.80;;;19.90;99.90;;;;;;5039927;28;20502;-52
2023/07/16 05:07:51;;;;;;;3.27;2.97;;;19.90;99.90;;;;;;5044224;28;20493;-51
2023/07/16 05:10:18;;;;;;;3.20;2.90;;;20.00;87.00;;;;;;5052368;28;20975;-51
2023/07/16 05:12:46;;;;;;;2.90;2.67;;;20.00;23.00;;;;;;5049738;28;20490;-52
2023/07/16 05:15:12;;;;;;;2.80;2.60;;;20.10;25.10;;;;;;5044988;28;20466;-53
2023/07/16 05:17:39;;;;;;;3.47;2.73;;;20.10;28.20;;;;;;5045654;28;20490;-52
2023/07/16 05:20:07;;;;;;;8.30;2.63;;;20.10;30.80;;;;;;5049663;28;20827;-52
2023/07/16 05:22:33;;;;;;;2.63;2.13;;;20.10;32.20;;;;;;5052793;28;20481;-51
2023/07/16 05:25:00;;;;;;;2.90;2.70;;;20.20;33.10;;;;;;5046498;28;20486;-52
2023/07/16 05:27:26;;;;;;;2.73;2.53;;;20.20;36.50;;;;;;5050284;28;20474;-52
2023/07/16 05:29:54;;;;;;;3.67;2.40;;;20.30;41.00;;;;;;5051686;28;21251;-52
2023/07/16 05:32:22;;;;;;;2.50;2.37;;;20.30;47.00;;;;;;5051253;28;20517;-52
2023/07/16 05:34:49;;;;;;;3.20;2.90;;;20.30;46.40;;;;;;5044879;28;20482;-52
2023/07/16 05:37:15;;;;;;;8.63;2.80;;;20.40;48.50;;;;;;5048740;28;20524;-52
2023/07/16 05:39:42;;;;;;;2.87;2.50;;;20.40;50.80;;;;;;5044896;28;21187;-52
2023/07/16 05:42:08;;;;;;;4.10;2.40;;;20.40;69.30;;;;;;5046281;28;20482;-52
2023/07/16 05:44:35;;;;;;;7.03;2.90;;;20.40;64.60;;;;;;5047991;28;20486;-52
2023/07/16 05:47:04;;;;;;;2.77;2.57;;;20.40;63.70;;;;;;5051884;28;20515;-53
2023/07/16 05:49:31;;;;;;;5.87;2.37;;;20.40;63.60;;;;;;5049548;28;20525;-53
2023/07/16 05:51:58;;;;;;;3.00;2.80;;;20.40;60.60;;;;;;5046947;28;20553;-51
2023/07/16 05:54:24;;;;;;;3.67;3.07;;;20.50;59.50;;;;;;5044376;28;20509;-53
2023/07/16 05:56:51;;;;;;;11.77;2.90;;;20.50;57.90;;;;;;5051423;28;20450;-51
2023/07/16 05:59:18;;;;;;;3.03;2.80;;;20.60;72.90;;;;;;5050314;28;20527;-51
2023/07/16 06:01:44;;;;;;;3.10;2.87;;;20.60;70.30;;;;;;5044123;28;20535;-51
2023/07/16 06:04:12;;;;;;;3.77;3.47;;;20.70;67.70;;;;;;5043246;28;20524;-52
2023/07/16 06:06:38;;;;;;;3.33;2.70;;;20.80;76.10;;;;;;5043158;28;20509;-52
2023/07/16 06:09:05;;;;;;;3.43;3.13;;;20.80;80.80;;;;;;5051396;28;20983;-53
2023/07/16 06:11:32;;;;;;;3.10;2.90;;;20.90;94.80;;;;;;5051293;28;20971;-53
2023/07/16 06:13:58;;;;;;;3.70;3.40;;;21.00;99.90;;;;;;5049766;28;20493;-53
2023/07/16 06:16:25;;;;;;;3.13;2.83;;;21.10;99.90;;;;;;5051888;28;20490;-51
2023/07/16 06:18:51;;;;;;;5.43;3.73;;;21.10;99.90;;;;;;5050542;28;20869;-52
2023/07/16 06:21:19;;;;;;;4.43;3.80;;;21.20;99.90;;;;;;5051508;28;20490;-51
2023/07/16 06:23:46;;;;;;;3.77;3.00;;;21.20;99.90;;;;;;5049365;28;20482;-52
2023/07/16 06:26:12;;;;;;;8.13;4.00;;;21.30;99.90;;;;;;5050839;28;20531;-54
2023/07/16 06:28:39;;;;;;;4.87;2.83;;;21.40;99.90;;;;;;5051268;28;20515;-53
2023/07/16 06:31:05;;;;;;;6.00;3.10;;;21.50;99.90;;;;;;5043095;28;20477;-53
2023/07/16 06:33:32;;;;;;;5.80;3.47;;;21.50;99.90;;;;;;5048723;28;20521;-52
2023/07/16 06:35:58;;;;;;;4.23;2.50;;;21.70;99.90;;;;;;5049930;28;20498;-54
2023/07/16 06:38:26;;;;;;;3.30;2.60;;;21.70;99.90;;;;;;5045212;28;20548;-52
2023/07/16 06:40:53;;;;;;;5.17;3.57;;;21.70;99.90;;;;;;5047186;28;20516;-52
2023/07/16 06:43:19;;;;;;;3.00;2.80;;;21.80;99.90;;;;;;5046929;28;20561;-53
2023/07/16 06:45:46;;;;;;;3.23;2.97;;;21.80;99.90;;;;;;5048278;28;21010;-52
2023/07/16 06:48:12;;;;;;;2.90;2.70;;;21.90;99.90;;;;;;5051249;28;20512;-51
2023/07/16 06:50:39;;;;;;;3.77;3.53;;;22.10;99.90;;;;;;5049969;28;20493;-53
2023/07/16 06:53:06;;;;;;;3.60;2.80;;;22.20;99.90;;;;;;5044113;28;20521;-53
2023/07/16 06:55:33;;;;;;;3.80;2.90;;;22.30;99.90;;;;;;5047322;28;20501;-52
2023/07/16 06:58:01;;;;;;;4.07;3.30;;;22.30;99.90;;;;;;5043204;28;20995;-52
2023/07/16 07:00:28;;;;;;;5.13;3.17;;;22.30;99.90;;;;;;5046137;28;20470;-52
2023/07/16 07:02:54;;;;;;;3.20;2.90;;;22.30;99.90;;;;;;5049755;28;21093;-52
2023/07/16 07:05:21;;;;;;;4.70;3.10;;;22.30;99.90;;;;;;5046896;28;20509;-52
2023/07/16 07:07:47;;;;;;;3.20;3.00;;;22.30;99.90;;;;;;5047076;28;20474;-55
2023/07/16 07:10:14;;;;;;;5.50;3.20;;;22.30;99.90;;;;;;5047965;28;20940;-55
2023/07/16 07:12:42;;;;;;;4.20;3.03;;;22.40;99.90;;;;;;5045870;28;20482;-55
2023/07/16 07:15:09;;;;;;;6.70;3.30;;;22.50;99.90;;;;;;5048996;28;20510;-55
2023/07/16 07:17:36;;;;;;;4.70;3.00;;;22.50;99.90;;;;;;5049314;28;20442;-55
2023/07/16 07:20:04;;;;;;;7.90;2.77;;;22.60;99.90;;;;;;5049373;28;20461;-54
2023/07/16 07:22:31;;;;;;;3.30;3.00;;;22.70;99.90;;;;;;5049973;28;21191;-54
2023/07/16 07:24:58;;;;;;;3.73;2.80;;;22.70;99.90;;;;;;5046159;28;20513;-54
2023/07/16 07:27:24;;;;;;;4.90;3.00;;;22.80;99.90;;;;;;5047850;28;20471;-53
2023/07/16 07:29:52;;;;;;;2.97;2.70;;;23.00;99.90;;;;;;5047623;28;20489;-55
2023/07/16 07:32:19;;;;;;;4.87;2.83;;;23.10;99.90;;;;;;5050784;28;20494;-56
2023/07/16 07:34:46;;;;;;;2.47;2.27;;;23.10;25.80;;;;;;5051875;28;20902;-55
2023/07/16 07:37:13;;;;;;;3.40;3.10;;;23.00;28.50;;;;;;5048725;28;20986;-55
2023/07/16 07:39:40;;;;;;;2.97;2.67;;;23.00;77.10;;;;;;5048929;28;20544;-54
2023/07/16 07:42:09;;;;;;;4.07;2.80;;;23.10;97.00;;;;;;5053437;28;20480;-55
2023/07/16 07:44:36;;;;;;;3.43;3.13;;;23.10;31.50;;;;;;5048362;28;20491;-53
2023/07/16 07:47:08;;;;;;;3.53;3.17;;;23.30;35.00;;;;;;5054692;28;20442;-54
2023/07/16 07:49:35;;;;;;;4.70;3.43;;;23.20;58.90;;;;;;5050064;28;20483;-56
2023/07/16 07:52:01;;;;;;;2.90;2.57;;;23.30;43.30;;;;;;5052300;28;20956;-55
2023/07/16 07:54:28;;;;;;;5.83;3.37;;;23.40;46.60;;;;;;5048242;28;20870;-54
2023/07/16 07:56:54;;;;;;;2.70;2.50;;;23.40;41.10;;;;;;5051800;28;20496;-55
2023/07/16 07:59:21;;;;;;;5.23;2.50;;;23.40;52.50;;;;;;5051462;28;20466;-54
2023/07/16 08:01:47;;;;;;;3.93;2.93;;;23.50;93.20;;;;;;5051894;28;20505;-56
2023/07/16 08:04:15;;;;;;;5.53;2.50;;;23.50;94.50;;;;;;5049047;28;20992;-55
2023/07/16 08:06:43;;;;;;;5.60;2.23;;;23.50;99.90;;;;;;5053637;28;21171;-55
2023/07/16 08:09:09;;;;;;;2.70;2.50;;;23.60;99.90;;;;;;5048091;28;20573;-53
2023/07/16 08:11:36;;;;;;;2.70;2.27;;;23.70;99.90;;;;;;5050367;28;20494;-55
2023/07/16 08:14:02;;;;;;;3.13;2.37;;;23.90;99.90;;;;;;5052660;28;20581;-53
2023/07/16 08:16:29;;;;;;;2.60;2.40;;;24.00;99.90;;;;;;5044180;28;20485;-55
2023/07/16 08:18:55;;;;;;;2.43;2.23;;;24.00;99.90;;;;;;5048168;28;20455;-52
2023/07/16 08:21:23;;;;;;;2.13;1.97;;;24.10;99.90;;;;;;5050234;28;20496;-51
2023/07/16 08:23:50;;;;;;;2.40;2.20;;;24.10;99.90;;;;;;5051244;28;20510;-54
2023/07/16 08:26:17;;;;;;;2.40;2.10;;;24.30;40.20;;;;;;5053089;28;20527;-54
2023/07/16 08:28:43;;;;;;;2.57;2.37;;;24.50;33.00;;;;;;5053903;28;20481;-56
2023/07/16 08:31:11;;;;;;;7.63;2.67;;;24.50;78.20;;;;;;5050607;28;21028;-55
2023/07/16 08:33:38;;;;;;;3.50;2.37;;;24.50;82.60;;;;;;5053959;22;20526;-51
2023/07/16 08:36:05;;;;;;;7.70;2.63;;;24.40;90.30;;;;;;5032349;28;20463;-51
2023/07/16 08:38:33;;;;;;;5.07;2.83;;;24.40;83.40;;;;;;5031868;28;20980;-52
2023/07/16 08:41:00;;;;;;;6.30;2.57;;;24.40;91.70;;;;;;5031312;28;20493;-56
2023/07/16 08:43:29;;;;;;;2.97;2.77;;;24.60;83.40;;;;;;5029607;28;21173;-53
2023/07/16 08:45:56;;;;;;;3.40;2.23;;;24.80;96.80;;;;;;5032333;28;20517;-51
2023/07/16 08:48:23;;;;;;;2.00;1.90;;;24.90;95.00;;;;;;5028845;28;20520;-58
2023/07/16 08:50:50;;;;;;;3.17;2.87;;;24.80;99.90;;;;;;5032256;28;20458;-50
2023/07/16 08:53:18;;;;;;;4.20;2.60;;;24.70;99.90;;;;;;5031190;28;20501;-50
2023/07/16 08:55:46;;;;;;;2.30;2.17;;;24.70;96.30;;;;;;5031028;28;20486;-51
2023/07/16 08:58:14;;;;;;;5.70;2.67;;;24.80;99.90;;;;;;5031669;28;20503;-50
2023/07/16 09:00:41;;;;;;;5.33;2.73;;;25.00;99.90;;;;;;5032650;28;20486;-51
2023/07/16 09:03:08;;;;;;;2.87;2.67;;;25.20;99.90;;;;;;5029805;28;20949;-50
2023/07/16 09:05:35;;;;;;;3.40;1.93;;;25.10;99.90;;;;;;5030652;28;20892;-50
2023/07/16 09:08:02;;;;;;;5.73;2.30;;;25.20;99.90;;;;;;5032549;28;20475;-51
2023/07/16 09:10:29;;;;;;;2.33;2.13;;;25.00;99.90;;;;;;5028694;28;20463;-51
2023/07/16 09:12:59;;;;;;;6.10;3.03;;;25.00;99.90;;;;;;5029394;28;20518;-51
2023/07/16 09:15:28;;;;;;;3.20;1.90;;;25.30;99.90;;;;;;5031643;28;20463;-52
2023/07/16 09:17:55;;;;;;;4.53;2.10;;;25.50;99.90;;;;;;5031498;28;20524;-51
2023/07/16 09:20:23;;;;;;;6.53;2.43;;;26.10;99.90;;;;;;5028477;28;20548;-51
2023/07/16 09:22:50;;;;;;;6.67;2.10;;;26.50;99.90;;;;;;5027178;28;20489;-51
2023/07/16 09:25:17;;;;;;;2.87;1.70;;;26.50;99.90;;;;;;5027712;28;21285;-50
2023/07/16 09:27:43;;;;;;;4.13;2.03;;;26.50;99.90;;;;;;5027859;28;20463;-51
2023/07/16 09:30:17;;;;;;;3.77;2.17;;;26.20;99.90;;;;;;5024501;28;20467;-52
2023/07/16 09:32:45;;;;;;;4.13;2.17;;;25.80;99.90;;;;;;5029911;28;20518;-51
2023/07/16 09:35:12;;;;;;;3.10;1.83;;;25.20;99.90;;;;;;5030719;28;20505;-51
2023/07/16 09:37:39;;;;;;;5.53;2.13;;;25.30;99.90;;;;;;5025637;28;20546;-52
2023/07/16 09:40:09;;;;;;;8.63;2.30;;;25.30;99.90;;;;;;5028366;28;20541;-50
2023/07/16 09:42:38;;;;;;;1.87;1.63;;;25.40;99.90;;;;;;5023947;28;20470;-51
2023/07/16 09:45:06;;;;;;;2.60;1.80;;;25.60;99.90;;;;;;5022929;28;20478;-51
2023/07/16 09:47:34;;;;;;;2.23;1.70;;;25.80;99.90;;;;;;5023619;28;20582;-51
2023/07/16 09:50:01;;;;;;;3.47;1.63;;;26.10;99.90;;;;;;5022625;28;20888;-50
2023/07/16 09:52:28;;;;;;;4.20;1.50;;;26.20;99.90;;;;;;5024411;28;20790;-51
2023/07/16 09:54:57;;;;;;;5.43;1.73;;;26.60;99.90;;;;;;5024543;28;20447;-51
2023/07/16 09:57:25;;;;;;;6.73;1.90;;;26.60;99.90;;;;;;5028011;28;20467;-51
2023/07/16 09:59:53;;;;;;;4.23;2.10;;;27.00;99.90;;;;;;5024024;28;20542;-52
2023/07/16 10:02:21;;;;;;;4.00;1.70;;;27.00;99.90;;;;;;5023350;28;20534;-51
2023/07/16 10:04:49;;;;;;;6.47;1.90;;;27.40;99.90;;;;;;5021858;28;20585;-51
2023/07/16 10:07:24;;;;;;;3.90;1.80;;;27.00;99.90;;;;;;5023871;28;20494;-52
2023/07/16 10:09:56;;;;;;;2.37;1.53;;;26.90;99.90;;;;;;5031516;28;20458;-52
2023/07/16 10:12:24;;;;;;;4.10;2.17;;;27.50;99.90;;;;;;5025734;28;20467;-52
2023/07/16 10:14:52;;;;;;;3.83;1.57;;;27.40;99.90;;;;;;5023867;28;20904;-52
2023/07/16 10:17:22;;;;;;;2.30;1.57;;;27.30;99.90;;;;;;5030071;28;20969;-52
2023/07/16 10:19:57;;;;;;;10.00;1.80;;;27.40;99.90;;;;;;5026716;28;20486;-50
2023/07/16 10:22:35;;;;;;;4.50;1.53;;;27.40;99.90;;;;;;5030607;28;20492;-51
2023/07/16 10:25:02;;;;;;;2.67;1.57;;;27.40;99.90;;;;;;5029495;28;20570;-51
2023/07/16 10:27:30;;;;;;;1.40;1.30;;;27.70;99.90;;;;;;5029032;28;20463;-51
2023/07/16 10:29:57;;;;;;;2.10;1.43;;;28.00;99.90;;;;;;5028219;28;20902;-51
2023/07/16 10:32:28;;;;;;;2.57;1.50;;;28.40;99.90;;;;;;5029681;28;20493;-51
2023/07/16 10:34:56;;;;;;;5.80;1.70;;;27.60;99.90;;;;;;5027742;28;20465;-51
2023/07/16 10:37:23;;;;;;;2.73;1.53;;;28.10;99.90;;;;;;5030435;28;20487;-51
2023/07/16 10:39:51;;;;;;;3.10;1.30;;;28.60;99.90;;;;;;5024551;28;20490;-51
2023/07/16 10:42:18;;;;;;;2.67;1.43;;;29.40;99.90;;;;;;5023401;28;20494;-51
2023/07/16 10:44:44;;;;;;;5.70;2.40;;;30.00;99.90;;;;;;5022011;28;21195;-51
2023/07/16 10:47:20;;;;;;;4.90;1.80;;;30.90;99.90;;;;;;5030138;28;20498;-51
2023/07/16 10:49:47;;;;;;;3.20;1.67;;;30.70;99.90;;;;;;5020953;28;20469;-51
2023/07/16 10:52:15;;;;;;;1.77;1.53;;;30.40;99.90;;;;;;5029243;28;20495;-51
2023/07/16 10:54:41;;;;;;;3.50;2.10;;;29.70;99.90;;;;;;5025540;28;20556;-51
2023/07/16 10:57:08;;;;;;;3.63;2.30;;;30.00;99.90;;;;;;5024007;28;20553;-51
2023/07/16 10:59:37;;;;;;;1.93;1.70;;;29.90;99.90;;;;;;5026420;28;20490;-50
2023/07/16 11:02:04;;;;;;;3.63;1.50;;;29.80;99.90;;;;;;5031439;28;21005;-52
2023/07/16 11:04:34;;;;;;;2.77;1.40;;;29.60;99.90;;;;;;5027890;28;20565;-52
2023/07/16 11:07:05;;;;;;;3.60;1.50;;;29.50;99.90;;;;;;5034029;28;20549;-51
2023/07/16 11:09:34;;;;;;;2.50;1.57;;;29.70;99.90;;;;;;5032214;28;20524;-50
2023/07/16 11:12:06;;;;;;;1.67;1.33;;;29.00;99.90;;;;;;5034476;28;20462;-52
2023/07/16 11:14:33;;;;;;;17.87;2.30;;;28.30;99.90;;;;;;5032303;28;20573;-52
2023/07/16 11:17:05;;;;;;;1.57;1.47;;;28.30;99.90;;;;;;5034427;28;20482;-51
2023/07/16 11:19:32;;;;;;;4.53;1.70;;;28.10;99.90;;;;;;5034062;28;20462;-52
2023/07/16 11:21:59;;;;;;;1.80;1.70;;;27.80;99.90;;;;;;5023524;28;20521;-52
2023/07/16 11:24:27;;;;;;;5.40;1.90;;;27.60;99.90;;;;;;5031538;28;20602;-51
2023/07/16 11:26:57;;;;;;;10.13;1.70;;;27.50;99.90;;;;;;5033282;28;21031;-51
2023/07/16 11:29:24;;;;;;;2.70;2.10;;;27.60;99.90;;;;;;5032654;28;20972;-51
2023/07/16 11:31:51;;;;;;;3.13;2.07;;;27.60;99.90;;;;;;5034246;28;20458;-51
2023/07/16 11:34:20;;;;;;;3.07;2.00;;;27.40;99.90;;;;;;5033596;28;20493;-52
2023/07/16 11:36:46;;;;;;;4.20;1.77;;;27.30;99.90;;;;;;5032269;28;20479;-52
2023/07/16 11:39:13;;;;;;;2.10;1.60;;;27.50;99.90;;;;;;5034177;28;20539;-52
2023/07/16 11:41:39;;;;;;;4.93;1.80;;;28.00;99.90;;;;;;5029592;28;20497;-52
2023/07/16 11:44:09;;;;;;;4.10;2.00;;;27.80;99.90;;;;;;5031468;28;20585;-50
2023/07/16 11:46:36;;;;;;;2.03;1.50;;;27.60;99.90;;;;;;5031478;28;20857;-51
2023/07/16 11:49:03;;;;;;;1.80;1.70;;;27.40;99.90;;;;;;5029800;28;20494;-51
2023/07/16 11:51:30;;;;;;;5.87;2.40;;;26.90;99.90;;;;;;5024349;28;20492;-51
2023/07/16 11:53:57;;;;;;;3.00;2.00;;;26.80;99.90;;;;;;5030025;28;20561;-52
2023/07/16 11:56:23;;;;;;;4.87;2.50;;;27.00;99.90;;;;;;5033212;28;20537;-51
2023/07/16 11:58:50;;;;;;;8.23;1.60;;;26.90;99.90;;;;;;5032064;28;20466;-51
2023/07/16 12:01:18;;;;;;;3.17;2.00;;;26.70;99.90;;;;;;5031704;28;20538;-50
2023/07/16 12:03:45;;;;;;;2.60;2.07;;;26.30;99.90;;;;;;5032802;28;20509;-52
2023/07/16 12:06:11;;;;;;;4.53;1.70;;;26.30;99.90;;;;;;5031311;28;20563;-52
2023/07/16 12:08:38;;;;;;;4.07;2.23;;;26.20;99.90;;;;;;5033046;28;20486;-53
2023/07/16 12:11:04;;;;;;;5.70;1.93;;;26.20;99.90;;;;;;5033385;28;20520;-53
2023/07/16 12:13:31;;;;;;;1.83;1.60;;;26.10;99.90;;;;;;5032136;28;20572;-53
2023/07/16 12:15:57;;;;;;;6.40;2.70;;;26.50;99.90;;;;;;5032906;28;20490;-53
2023/07/16 12:18:25;;;;;;;2.50;1.70;;;26.90;99.90;;;;;;5028646;28;20462;-52
2023/07/16 12:20:52;;;;;;;4.37;2.40;;;27.20;99.90;;;;;;5032570;28;20466;-53
2023/07/16 12:23:18;;;;;;;4.87;1.80;;;27.40;99.90;;;;;;5030541;28;20474;-51
2023/07/16 12:25:45;;;;;;;2.20;1.87;;;27.70;99.90;;;;;;5032524;28;20514;-52
2023/07/16 12:28:11;;;;;;;3.03;1.73;;;27.90;99.90;;;;;;5030920;28;20487;-52
2023/07/16 12:30:38;;;;;;;3.23;1.80;;;27.70;99.90;;;;;;5033197;28;20818;-51
2023/07/16 12:33:05;;;;;;;5.80;2.10;;;27.90;99.90;;;;;;5032281;28;20910;-51
2023/07/16 12:35:33;;;;;;;6.30;2.20;;;27.80;99.90;;;;;;5032234;28;20983;-51
2023/07/16 12:37:59;;;;;;;5.63;1.97;;;28.20;99.90;;;;;;5025814;28;20469;-51
2023/07/16 12:40:26;;;;;;;4.60;1.87;;;28.20;99.90;;;;;;5024837;28;20532;-51
2023/07/16 12:42:52;;;;;;;6.60;2.40;;;29.00;99.90;;;;;;5033962;28;20478;-51
2023/07/16 12:45:19;;;;;;;5.77;2.00;;;29.50;99.90;;;;;;5033066;28;20954;-51